createdAt,value
2023-03-17T00:00:59.342Z,1.70
2023-03-17T00:06:01.968Z,2.17
2023-03-17T00:11:03.949Z,1.77
2023-03-17T00:16:20.095Z,1.93
2023-03-17T00:21:30.611Z,2.70
2023-03-17T00:26:33.386Z,1.90
2023-03-17T00:31:35.802Z,1.70
2023-03-17T00:36:37.664Z,1.70
2023-03-17T00:41:39.557Z,2.47
2023-03-17T00:46:42.219Z,1.67
2023-03-17T00:51:45.885Z,1.50
2023-03-17T00:56:52.003Z,2.30
2023-03-17T01:01:54.671Z,1.70
2023-03-17T01:06:58.573Z,1.90
2023-03-17T01:12:03.675Z,1.37
2023-03-17T01:17:15.230Z,1.80
2023-03-17T01:22:17.103Z,2.03
2023-03-17T01:27:19.405Z,1.63
2023-03-17T01:32:22.226Z,1.37
2023-03-17T01:37:24.126Z,1.57
2023-03-17T01:42:25.994Z,2.03
2023-03-17T01:47:32.618Z,1.40
2023-03-17T01:52:36.778Z,1.60
2023-03-17T01:57:42.541Z,1.97
2023-03-17T02:02:47.856Z,1.80
2023-03-17T02:07:49.989Z,1.73
2023-03-17T02:12:58.520Z,2.70
2023-03-17T02:18:00.404Z,2.27
2023-03-17T02:23:04.165Z,1.90
2023-03-17T02:28:16.231Z,1.80
2023-03-17T02:33:19.077Z,1.80
2023-03-17T02:38:21.817Z,1.53
2023-03-17T02:43:23.885Z,2.43
2023-03-17T02:48:26.313Z,2.17
2023-03-17T02:53:28.214Z,2.00
2023-03-17T02:58:30.056Z,1.70
2023-03-17T03:03:32.017Z,2.20
2023-03-17T03:08:33.894Z,2.37
2023-03-17T03:13:36.636Z,1.60
2023-03-17T03:18:38.482Z,1.80
2023-03-17T03:23:40.432Z,1.57
2023-03-17T03:28:42.257Z,2.00
2023-03-17T03:33:44.909Z,2.00
2023-03-17T03:38:46.736Z,1.83
2023-03-17T03:43:48.629Z,2.00
2023-03-17T03:48:50.620Z,2.37
2023-03-17T03:53:52.414Z,2.80
2023-03-17T03:58:54.170Z,4.60
2023-03-17T04:03:56.106Z,3.20
2023-03-17T04:08:58.516Z,2.77
2023-03-17T04:14:00.394Z,2.50
2023-03-17T04:19:02.366Z,2.17
2023-03-17T04:24:05.217Z,1.97
2023-03-17T04:29:09.516Z,2.40
2023-03-17T04:34:16.300Z,2.10
2023-03-17T04:39:18.364Z,2.57
2023-03-17T04:44:20.349Z,2.20
2023-03-17T04:49:22.181Z,2.33
2023-03-17T04:54:24.040Z,2.17
2023-03-17T04:59:26.058Z,2.07
2023-03-17T05:04:31.621Z,2.43
2023-03-17T05:09:34.158Z,2.70
2023-03-17T05:14:37.229Z,2.57
2023-03-17T05:19:39.247Z,2.00
2023-03-17T05:24:41.038Z,2.33
2023-03-17T05:29:42.980Z,2.20
2023-03-17T05:34:45.199Z,2.90
2023-03-17T05:39:47.119Z,2.70
2023-03-17T05:44:49.041Z,2.40
2023-03-17T05:49:51.085Z,2.33
2023-03-17T05:54:53.521Z,2.33
2023-03-17T05:59:55.633Z,3.17
2023-03-17T06:04:57.831Z,3.10
2023-03-17T06:10:00.516Z,2.60
2023-03-17T06:15:02.737Z,2.70
2023-03-17T06:20:05.621Z,3.10
2023-03-17T06:25:08.469Z,2.67
2023-03-17T06:30:11.558Z,3.27
2023-03-17T06:35:13.629Z,3.53
2023-03-17T06:40:16.231Z,3.80
2023-03-17T06:45:18.273Z,2.87
2023-03-17T06:50:20.345Z,4.73
2023-03-17T06:55:22.465Z,4.50
2023-03-17T07:00:24.424Z,4.43
2023-03-17T07:05:26.882Z,3.90
2023-03-17T07:10:28.865Z,4.37
2023-03-17T07:15:35.019Z,4.13
2023-03-17T07:20:37.232Z,3.90
2023-03-17T07:25:40.453Z,3.90
2023-03-17T07:30:46.669Z,3.27
2023-03-17T07:35:49.716Z,3.87
2023-03-17T07:40:53.114Z,3.60
2023-03-17T07:45:55.082Z,3.70
2023-03-17T07:50:57.005Z,3.80
2023-03-17T07:55:58.864Z,4.07
2023-03-17T08:01:03.350Z,3.73
2023-03-17T08:06:06.197Z,3.97
2023-03-17T08:11:08.207Z,4.30
2023-03-17T08:16:10.985Z,3.80
2023-03-17T08:21:14.809Z,3.53
2023-03-17T08:26:18.682Z,4.10
2023-03-17T08:31:21.663Z,4.13
2023-03-17T08:36:24.068Z,3.40
2023-03-17T08:41:28.234Z,3.90
2023-03-17T08:46:31.858Z,3.70
2023-03-17T08:51:36.895Z,4.57
2023-03-17T08:56:40.512Z,3.57
2023-03-17T09:01:44.234Z,3.53
2023-03-17T09:07:01.874Z,3.60
2023-03-17T09:12:06.481Z,3.67
2023-03-17T09:17:08.547Z,3.20
2023-03-17T09:22:15.211Z,3.70
2023-03-17T09:27:17.155Z,3.30
2023-03-17T09:32:19.587Z,3.50
2023-03-17T09:37:21.890Z,3.00
2023-03-17T09:42:44.539Z,4.17
2023-03-17T09:48:04.802Z,3.67
2023-03-17T09:53:35.955Z,3.20
2023-03-17T09:58:41.686Z,3.00
2023-03-17T10:03:43.628Z,3.60
2023-03-17T10:08:55.467Z,4.33
2023-03-17T10:14:05.261Z,2.80
2023-03-17T10:19:27.464Z,3.60
2023-03-17T10:24:32.495Z,2.93
2023-03-17T10:29:34.332Z,2.80
2023-03-17T10:34:38.126Z,2.97
2023-03-17T10:39:52.671Z,3.37
2023-03-17T10:45:07.216Z,3.20
2023-03-17T10:50:15.540Z,3.37
2023-03-17T10:55:21.343Z,3.27
2023-03-17T11:00:24.638Z,2.90
2023-03-17T11:05:29.203Z,3.20
2023-03-17T11:10:37.870Z,3.07
2023-03-17T11:16:01.908Z,2.97
2023-03-17T11:21:22.899Z,3.20
2023-03-17T11:26:34.852Z,3.40
2023-03-17T11:31:55.914Z,3.63
2023-03-17T11:37:14.701Z,3.50
2023-03-17T11:42:19.679Z,3.50
2023-03-17T11:47:31.918Z,3.83
2023-03-17T11:52:36.785Z,3.70
2023-03-17T11:58:01.457Z,3.30
2023-03-17T12:03:12.501Z,3.73
2023-03-17T12:08:35.394Z,3.83
2023-03-17T12:13:45.958Z,3.13
2023-03-17T12:19:05.064Z,3.37
2023-03-17T12:24:31.517Z,3.17
2023-03-17T12:29:55.895Z,3.30
2023-03-17T12:35:02.863Z,3.77
2023-03-17T12:40:14.464Z,2.73
2023-03-17T12:45:49.833Z,3.57
2023-03-17T12:51:16.886Z,3.57
2023-03-17T12:56:31.484Z,3.80
2023-03-17T13:01:39.845Z,3.37
2023-03-17T13:06:53.115Z,3.30
2023-03-17T13:11:55.111Z,3.43
2023-03-17T13:17:19.870Z,3.40
2023-03-17T13:22:21.609Z,3.70
2023-03-17T13:27:32.450Z,4.50
2023-03-17T13:32:36.644Z,3.60
2023-03-17T13:38:05.344Z,3.97
2023-03-17T13:43:07.335Z,3.10
2023-03-17T13:48:21.300Z,3.67
2023-03-17T13:53:27.630Z,3.23
2023-03-17T13:58:34.204Z,3.40
2023-03-17T14:03:42.452Z,4.30
2023-03-17T14:08:47.725Z,4.20
2023-03-17T14:14:32.873Z,3.97
2023-03-17T14:19:38.986Z,3.90
2023-03-17T14:24:40.920Z,4.30
2023-03-17T14:29:43.364Z,3.40
2023-03-17T14:34:53.003Z,3.50
2023-03-17T14:39:57.464Z,3.80
2023-03-17T14:45:06.633Z,3.43
2023-03-17T14:50:31.554Z,4.00
2023-03-17T14:55:43.430Z,3.53
2023-03-17T15:00:47.197Z,3.83
2023-03-17T15:05:50.068Z,3.63
2023-03-17T15:10:52.399Z,3.63
2023-03-17T15:15:55.403Z,3.77
2023-03-17T15:20:58.329Z,3.20
2023-03-17T15:26:03.311Z,3.20
2023-03-17T15:31:13.453Z,3.73
2023-03-17T15:36:31.203Z,3.33
2023-03-17T15:41:34.290Z,3.50
2023-03-17T15:46:36.795Z,3.40
2023-03-17T15:51:38.975Z,2.90
2023-03-17T15:56:43.226Z,3.53
2023-03-17T16:01:45.194Z,3.67
2023-03-17T16:06:49.125Z,3.10
2023-03-17T16:11:52.236Z,3.70
2023-03-17T16:16:54.056Z,4.10
2023-03-17T16:21:56.432Z,4.23
2023-03-17T16:26:58.265Z,3.80
2023-03-17T16:32:00.177Z,3.50
2023-03-17T16:37:03.156Z,5.57
2023-03-17T16:42:05.408Z,4.40
2023-03-17T16:47:09.142Z,4.63
2023-03-17T16:52:12.133Z,4.50
2023-03-17T16:57:14.113Z,4.33
2023-03-17T17:02:16.344Z,7.93
2023-03-17T17:07:18.131Z,6.03
2023-03-17T17:12:19.951Z,6.57
2023-03-17T17:17:21.791Z,4.03
2023-03-17T17:22:23.622Z,4.83
2023-03-17T17:27:25.942Z,5.27
2023-03-17T17:32:27.828Z,5.13
2023-03-17T17:37:29.769Z,6.13
2023-03-17T17:42:31.994Z,5.30
2023-03-17T17:47:33.940Z,6.50
2023-03-17T17:52:35.877Z,5.60
2023-03-17T17:57:37.723Z,5.47
2023-03-17T18:02:39.690Z,6.50
2023-03-17T18:07:41.741Z,6.70
2023-03-17T18:12:43.627Z,7.57
2023-03-17T18:17:45.845Z,4.30
2023-03-17T18:22:48.234Z,3.87
2023-03-17T18:27:50.229Z,5.90
2023-03-17T18:32:59.472Z,6.53
2023-03-17T18:38:01.949Z,4.17
2023-03-17T18:43:04.274Z,4.20
2023-03-17T18:48:06.830Z,5.00
2023-03-17T18:53:08.778Z,4.40
2023-03-17T18:58:13.722Z,4.77
2023-03-17T19:03:15.622Z,4.73
2023-03-17T19:08:19.637Z,4.93
2023-03-17T19:13:21.509Z,4.80
2023-03-17T19:18:23.425Z,4.60
2023-03-17T19:23:25.478Z,3.93
2023-03-17T19:28:27.578Z,4.83
2023-03-17T19:33:29.518Z,5.60
2023-03-17T19:38:31.984Z,4.83
2023-03-17T19:43:40.803Z,3.87
2023-03-17T19:48:43.543Z,3.53
2023-03-17T19:53:45.775Z,3.57
2023-03-17T19:58:47.762Z,3.83
2023-03-17T20:03:49.690Z,3.83
2023-03-17T20:08:51.772Z,5.20
2023-03-17T20:13:53.626Z,5.50
2023-03-17T20:18:56.026Z,4.40
2023-03-17T20:23:57.925Z,3.97
2023-03-17T20:29:00.812Z,2.70
2023-03-17T20:34:02.761Z,4.30
2023-03-17T20:39:05.793Z,3.97
2023-03-17T20:44:08.051Z,2.70
2023-03-17T20:49:10.604Z,4.17
2023-03-17T20:54:12.917Z,3.20
2023-03-17T20:59:15.389Z,3.73
2023-03-17T21:04:17.880Z,4.00
2023-03-17T21:09:19.794Z,4.33
2023-03-17T21:14:21.790Z,4.60
2023-03-17T21:19:24.005Z,4.10
2023-03-17T21:24:28.717Z,3.90
2023-03-17T21:29:32.235Z,3.47
2023-03-17T21:34:34.564Z,3.97
2023-03-17T21:39:36.643Z,3.53
2023-03-17T21:44:39.564Z,3.80
2023-03-17T21:49:41.752Z,4.20
2023-03-17T21:54:43.724Z,3.43
2023-03-17T21:59:45.693Z,3.80
2023-03-17T22:04:49.567Z,3.97
2023-03-17T22:09:53.087Z,3.97
2023-03-17T22:14:58.104Z,4.70
2023-03-17T22:20:00.025Z,5.77
2023-03-17T22:25:05.065Z,5.50
2023-03-17T22:30:07.657Z,5.93
2023-03-17T22:35:09.592Z,4.50
2023-03-17T22:40:12.167Z,4.70
2023-03-17T22:45:14.619Z,4.43
2023-03-17T22:50:17.029Z,4.73
2023-03-17T22:55:19.074Z,4.90
2023-03-17T23:00:21.498Z,3.67
2023-03-17T23:05:23.563Z,5.17
2023-03-17T23:10:25.496Z,4.53
2023-03-17T23:15:28.018Z,4.20
2023-03-17T23:20:30.524Z,3.43
2023-03-17T23:25:33.215Z,3.33
2023-03-17T23:30:35.895Z,3.73
2023-03-17T23:35:38.156Z,3.47
2023-03-17T23:40:40.122Z,3.97
2023-03-17T23:45:42.317Z,3.20
2023-03-17T23:50:44.216Z,2.93
2023-03-17T23:55:46.786Z,3.57
